createdAt,value
2023-02-27T00:00:15.043Z,102921.94
2023-02-27T00:03:20.558Z,102931.88
2023-02-27T00:06:24.159Z,102934.34
2023-02-27T00:09:28.390Z,102933.56
2023-02-27T00:12:37.642Z,102941.03
2023-02-27T00:15:41.263Z,102930.63
2023-02-27T00:18:46.161Z,102932.56
2023-02-27T00:21:49.700Z,102929.94
2023-02-27T00:24:53.159Z,102929.06
2023-02-27T00:27:56.956Z,102923.06
2023-02-27T00:31:00.503Z,102922.84
2023-02-27T00:34:05.528Z,102921.75
2023-02-27T00:37:09.161Z,102930.16
2023-02-27T00:40:14.281Z,102931.81
2023-02-27T00:43:17.736Z,102934.28
2023-02-27T00:46:21.322Z,102932.34
2023-02-27T00:49:26.476Z,102929.78
2023-02-27T00:52:30.200Z,102926.97
2023-02-27T00:55:33.729Z,102936.00
2023-02-27T00:58:37.316Z,102932.63
2023-02-27T01:01:40.801Z,102936.00
2023-02-27T01:04:45.811Z,102925.72
2023-02-27T01:07:49.313Z,102925.72
2023-02-27T01:10:54.853Z,102924.69
2023-02-27T01:13:58.401Z,102913.97
2023-02-27T01:17:02.102Z,102917.91
2023-02-27T01:20:09.888Z,102925.06
2023-02-27T01:23:13.374Z,102915.88
2023-02-27T01:26:16.907Z,102922.75
2023-02-27T01:29:20.755Z,102923.13
2023-02-27T01:32:24.383Z,102926.81
2023-02-27T01:35:29.417Z,102918.50
2023-02-27T01:38:33.278Z,102922.81
2023-02-27T01:41:36.919Z,102914.19
2023-02-27T01:45:36.418Z,102913.03
2023-02-27T01:48:41.033Z,102915.34
2023-02-27T01:51:51.966Z,102915.97
2023-02-27T01:54:57.009Z,102918.16
2023-02-27T01:58:02.294Z,102922.84
2023-02-27T02:01:06.248Z,102919.47
2023-02-27T02:04:19.755Z,102920.47
2023-02-27T02:07:25.552Z,102924.81
2023-02-27T02:10:30.590Z,102929.84
2023-02-27T02:13:35.690Z,102929.63
2023-02-27T02:17:06.002Z,102936.63
2023-02-27T02:21:17.694Z,102925.41
2023-02-27T02:28:37.304Z,102923.47
2023-02-27T02:32:22.350Z,102926.66
2023-02-27T02:36:32.570Z,102923.47
2023-02-27T02:40:19.725Z,102916.38
2023-02-27T02:43:32.487Z,102924.88
2023-02-27T02:46:49.180Z,102936.53
2023-02-27T02:50:00.955Z,102937.69
2023-02-27T02:53:17.353Z,102932.22
2023-02-27T02:56:30.613Z,102936.72
2023-02-27T02:59:40.113Z,102940.53
2023-02-27T03:02:50.349Z,102937.97
2023-02-27T03:06:02.187Z,102943.53
2023-02-27T03:09:15.631Z,102945.91
2023-02-27T03:12:27.018Z,102936.72
2023-02-27T03:15:39.788Z,102939.91
2023-02-27T03:18:51.616Z,102934.41
2023-02-27T03:22:03.905Z,102937.56
2023-02-27T03:25:13.437Z,102937.41
2023-02-27T03:28:23.776Z,102941.31
2023-02-27T03:31:35.206Z,102941.13
2023-02-27T03:34:43.787Z,102934.06
2023-02-27T03:37:59.698Z,102942.53
2023-02-27T03:41:16.073Z,102937.41
2023-02-27T03:44:31.310Z,102937.56
2023-02-27T03:47:36.492Z,102936.34
2023-02-27T03:50:40.406Z,102946.69
2023-02-27T03:53:53.380Z,102943.75
2023-02-27T03:57:02.618Z,102946.03
2023-02-27T04:00:15.257Z,102954.44
2023-02-27T04:03:19.409Z,102951.94
2023-02-27T04:06:40.771Z,102966.81
2023-02-27T04:10:17.659Z,102966.28
2023-02-27T04:13:55.870Z,102968.97
2023-02-27T04:17:19.370Z,102976.47
2023-02-27T04:20:44.441Z,102984.97
2023-02-27T04:23:58.623Z,102980.22
2023-02-27T04:27:14.249Z,102985.78
2023-02-27T04:30:31.453Z,102982.25
2023-02-27T04:33:46.962Z,102987.19
2023-02-27T04:37:01.454Z,102987.28
2023-02-27T04:40:12.041Z,102996.03
2023-02-27T04:43:17.499Z,102992.50
2023-02-27T04:46:27.659Z,102998.00
2023-02-27T04:49:37.659Z,103003.13
2023-02-27T04:52:47.840Z,103003.72
2023-02-27T04:55:56.184Z,103008.84
2023-02-27T04:59:05.611Z,103006.19
2023-02-27T05:02:16.043Z,103006.88
2023-02-27T05:05:28.439Z,103005.56
2023-02-27T05:08:42.221Z,103004.66
2023-02-27T05:11:56.038Z,103008.13
2023-02-27T05:15:07.225Z,103003.59
2023-02-27T05:18:15.435Z,103010.47
2023-02-27T05:21:29.451Z,103015.59
2023-02-27T05:24:46.934Z,103016.78
2023-02-27T05:27:58.144Z,103014.22
2023-02-27T05:31:11.128Z,103013.06
2023-02-27T05:34:24.829Z,103015.03
2023-02-27T05:37:36.240Z,103021.22
2023-02-27T05:40:46.422Z,103014.63
2023-02-27T05:43:55.616Z,103010.25
2023-02-27T05:47:05.779Z,103021.34
2023-02-27T05:50:17.525Z,103025.59
2023-02-27T05:53:31.137Z,103025.59
2023-02-27T05:56:38.325Z,103029.03
2023-02-27T05:59:52.145Z,103027.84
2023-02-27T06:02:55.908Z,103031.81
2023-02-27T06:06:03.772Z,103035.53
2023-02-27T06:09:09.617Z,103030.72
2023-02-27T06:12:13.273Z,103042.72
2023-02-27T06:15:17.475Z,103036.22
2023-02-27T06:18:21.889Z,103044.09
2023-02-27T06:21:25.581Z,103048.16
2023-02-27T06:24:30.605Z,103047.34
2023-02-27T06:27:34.177Z,103045.28
2023-02-27T06:30:38.338Z,103051.50
2023-02-27T06:33:42.003Z,103056.63
2023-02-27T06:36:45.713Z,103063.13
2023-02-27T06:39:50.725Z,103061.16
2023-02-27T06:42:54.671Z,103073.38
2023-02-27T06:45:58.535Z,103072.19
2023-02-27T06:49:02.310Z,103079.75
2023-02-27T06:52:06.124Z,103076.91
2023-02-27T06:55:12.999Z,103083.66
2023-02-27T06:58:17.046Z,103089.97
2023-02-27T07:01:20.706Z,103078.63
2023-02-27T07:04:24.368Z,103089.66
2023-02-27T07:07:35.534Z,103086.28
2023-02-27T07:10:44.071Z,103095.31
2023-02-27T07:13:47.656Z,103092.47
2023-02-27T07:16:55.082Z,103094.69
2023-02-27T07:19:58.966Z,103090.63
2023-02-27T07:23:02.634Z,103095.44
2023-02-27T07:26:07.861Z,103087.84
2023-02-27T07:29:11.963Z,103091.13
2023-02-27T07:32:15.844Z,103092.13
2023-02-27T07:35:19.918Z,103100.00
2023-02-27T07:38:24.149Z,103095.13
2023-02-27T07:41:30.948Z,103096.53
2023-02-27T07:44:34.904Z,103102.47
2023-02-27T07:47:38.560Z,103097.03
2023-02-27T07:50:42.178Z,103094.66
2023-02-27T07:53:45.930Z,103090.53
2023-02-27T07:56:51.031Z,103098.09
2023-02-27T07:59:54.750Z,103103.25
2023-02-27T08:02:58.595Z,103097.06
2023-02-27T08:06:02.597Z,103098.25
2023-02-27T08:09:07.304Z,103096.63
2023-02-27T08:12:13.061Z,103091.31
2023-02-27T08:15:17.710Z,103097.22
2023-02-27T08:18:21.384Z,103095.34
2023-02-27T08:21:25.340Z,103092.72
2023-02-27T08:24:29.300Z,103087.97
2023-02-27T08:27:34.419Z,103085.19
2023-02-27T08:30:38.144Z,103086.19
2023-02-27T08:33:41.964Z,103085.00
2023-02-27T08:36:45.649Z,103090.75
2023-02-27T08:39:49.375Z,103085.06
2023-02-27T08:42:54.433Z,103082.41
2023-02-27T08:45:58.146Z,103083.22
2023-02-27T08:49:01.864Z,103090.03
2023-02-27T08:52:05.659Z,103087.00
2023-02-27T08:55:10.751Z,103085.91
2023-02-27T08:58:17.190Z,103070.47
2023-02-27T09:01:22.069Z,103073.69
2023-02-27T09:04:26.374Z,103077.50
2023-02-27T09:07:30.024Z,103074.44
2023-02-27T09:10:34.030Z,103080.03
2023-02-27T09:13:39.045Z,103085.75
2023-02-27T09:16:42.907Z,103098.69
2023-02-27T09:19:46.517Z,103097.44
2023-02-27T09:22:50.214Z,103102.06
2023-02-27T09:25:54.010Z,103098.09
2023-02-27T09:28:59.088Z,103100.63
2023-02-27T09:32:03.204Z,103102.44
2023-02-27T09:35:09.571Z,103105.03
2023-02-27T09:38:13.799Z,103101.22
2023-02-27T09:41:43.457Z,103107.38
2023-02-27T09:44:52.268Z,103103.66
2023-02-27T09:48:02.187Z,103104.97
2023-02-27T09:51:06.710Z,103108.22
2023-02-27T09:54:13.601Z,103102.25
2023-02-27T09:57:24.082Z,103105.84
2023-02-27T10:00:48.805Z,103104.09
2023-02-27T10:04:28.567Z,103115.72
2023-02-27T10:07:41.671Z,103121.94
2023-02-27T10:11:00.370Z,103124.00
2023-02-27T10:14:25.160Z,103120.84
2023-02-27T10:17:35.674Z,103116.63
2023-02-27T10:20:47.831Z,103112.41
2023-02-27T10:23:59.073Z,103108.63
2023-02-27T10:27:07.786Z,103109.63
2023-02-27T10:30:30.423Z,103115.69
2023-02-27T10:33:40.621Z,103108.09
2023-02-27T10:36:46.797Z,103115.38
2023-02-27T10:39:57.814Z,103113.81
2023-02-27T10:43:06.333Z,103109.84
2023-02-27T10:46:17.590Z,103103.88
2023-02-27T10:49:23.469Z,103112.31
2023-02-27T10:52:27.712Z,103114.22
2023-02-27T10:55:34.041Z,103101.38
2023-02-27T10:58:39.292Z,103106.78
2023-02-27T11:01:46.178Z,103114.78
2023-02-27T11:04:56.179Z,103108.56
2023-02-27T11:08:21.743Z,103106.53
2023-02-27T11:11:30.057Z,103103.56
2023-02-27T11:14:34.958Z,103113.06
2023-02-27T11:17:38.687Z,103113.53
2023-02-27T11:20:44.228Z,103111.06
2023-02-27T11:24:01.078Z,103109.06
2023-02-27T11:27:20.878Z,103098.78
2023-02-27T11:30:28.555Z,103100.63
2023-02-27T11:33:39.965Z,103102.75
2023-02-27T11:36:48.620Z,103108.91
2023-02-27T11:39:58.645Z,103103.66
2023-02-27T11:43:08.718Z,103096.22
2023-02-27T11:46:47.328Z,103097.75
2023-02-27T11:50:32.887Z,103094.97
2023-02-27T11:54:07.292Z,103103.19
2023-02-27T11:57:26.634Z,103106.00
2023-02-27T12:00:40.860Z,103096.41
2023-02-27T12:03:57.548Z,103100.47
2023-02-27T12:07:11.884Z,103080.63
2023-02-27T12:10:22.918Z,103085.97
2023-02-27T12:13:32.418Z,103084.84
2023-02-27T12:16:42.846Z,103086.38
2023-02-27T12:20:01.927Z,103084.72
2023-02-27T12:23:20.584Z,103076.22
2023-02-27T12:26:33.322Z,103069.97
2023-02-27T12:29:45.124Z,103058.84
2023-02-27T12:32:58.115Z,103056.09
2023-02-27T12:36:05.742Z,103056.09
2023-02-27T12:39:20.694Z,103054.19
2023-02-27T12:42:56.713Z,103047.41
2023-02-27T12:46:36.953Z,103044.13
2023-02-27T12:49:53.189Z,103045.97
2023-02-27T12:53:16.828Z,103051.69
2023-02-27T12:56:24.264Z,103037.47
2023-02-27T12:59:47.310Z,103045.63
2023-02-27T13:03:06.388Z,103042.88
2023-02-27T13:06:21.954Z,103032.75
2023-02-27T13:09:38.265Z,103034.78
2023-02-27T13:12:49.163Z,103037.25
2023-02-27T13:16:00.857Z,103033.50
2023-02-27T13:19:15.456Z,103029.31
2023-02-27T13:22:33.932Z,103030.22
2023-02-27T13:25:43.289Z,103033.81
2023-02-27T13:28:47.986Z,103032.81
2023-02-27T13:32:02.650Z,103032.47
2023-02-27T13:35:24.913Z,103036.00
2023-02-27T13:38:41.976Z,103025.97
2023-02-27T13:41:45.653Z,103031.22
2023-02-27T13:44:50.360Z,103038.03
2023-02-27T13:47:56.904Z,103050.53
2023-02-27T13:51:01.791Z,103044.00
2023-02-27T13:54:20.939Z,103040.84
2023-02-27T13:57:27.819Z,103044.56
2023-02-27T14:00:34.628Z,103048.03
2023-02-27T14:03:42.178Z,103048.88
2023-02-27T14:06:49.061Z,103055.75
2023-02-27T14:10:03.696Z,103053.53
2023-02-27T14:13:46.941Z,103046.94
2023-02-27T14:17:03.573Z,103044.50
2023-02-27T14:20:14.125Z,103051.75
2023-02-27T14:23:25.877Z,103053.34
2023-02-27T14:26:29.840Z,103055.00
2023-02-27T14:29:36.264Z,103055.72
2023-02-27T14:32:41.514Z,103062.00
2023-02-27T14:35:48.585Z,103062.22
2023-02-27T14:38:57.794Z,103061.16
2023-02-27T14:42:27.511Z,103064.84
2023-02-27T14:45:32.180Z,103055.19
2023-02-27T14:48:38.295Z,103056.94
2023-02-27T14:51:41.960Z,103047.88
2023-02-27T14:54:45.819Z,103044.50
2023-02-27T14:57:57.867Z,103043.44
2023-02-27T15:01:07.326Z,103039.09
2023-02-27T15:04:21.127Z,103026.00
2023-02-27T15:07:27.510Z,103038.28
2023-02-27T15:10:33.375Z,103044.00
2023-02-27T15:13:40.470Z,103043.41
2023-02-27T15:16:44.167Z,103042.28
2023-02-27T15:19:52.392Z,103050.00
2023-02-27T15:22:56.231Z,103049.97
2023-02-27T15:26:01.526Z,103052.56
2023-02-27T15:29:07.700Z,103052.59
2023-02-27T15:32:22.400Z,103060.53
2023-02-27T15:35:36.906Z,103064.00
2023-02-27T15:38:40.563Z,103059.56
2023-02-27T15:41:48.591Z,103069.31
2023-02-27T15:44:53.585Z,103058.00
2023-02-27T15:47:57.887Z,103057.78
2023-02-27T15:51:05.787Z,103061.72
2023-02-27T15:54:12.199Z,103069.25
2023-02-27T15:57:16.071Z,103067.41
2023-02-27T16:00:23.025Z,103068.34
2023-02-27T16:03:30.889Z,103074.38
2023-02-27T16:06:40.163Z,103066.31
2023-02-27T16:09:47.024Z,103067.50
2023-02-27T16:12:52.372Z,103071.84
2023-02-27T16:16:05.171Z,103069.06
2023-02-27T16:19:27.905Z,103081.50
2023-02-27T16:22:32.891Z,103080.41
2023-02-27T16:25:37.211Z,103084.41
2023-02-27T16:28:51.790Z,103085.97
2023-02-27T16:31:58.667Z,103089.44
2023-02-27T16:35:06.206Z,103091.09
2023-02-27T16:38:13.102Z,103087.53
2023-02-27T16:41:20.023Z,103094.34
2023-02-27T16:44:24.549Z,103097.72
2023-02-27T16:47:29.009Z,103092.44
2023-02-27T16:50:40.538Z,103084.59
2023-02-27T16:53:48.061Z,103091.31
2023-02-27T16:56:52.735Z,103086.25
2023-02-27T16:59:57.439Z,103085.88
2023-02-27T17:03:01.221Z,103097.03
2023-02-27T17:06:05.290Z,103094.13
2023-02-27T17:09:12.237Z,103100.09
2023-02-27T17:12:15.938Z,103099.97
2023-02-27T17:15:20.060Z,103113.06
2023-02-27T17:18:23.803Z,103110.22
2023-02-27T17:21:27.699Z,103103.97
2023-02-27T17:24:32.735Z,103112.47
2023-02-27T17:27:36.918Z,103109.00
2023-02-27T17:30:42.282Z,103111.53
2023-02-27T17:33:45.907Z,103101.91
2023-02-27T17:36:51.064Z,103100.03
2023-02-27T17:39:56.161Z,103100.66
2023-02-27T17:42:59.822Z,103098.63
2023-02-27T17:46:06.573Z,103100.94
2023-02-27T17:49:10.227Z,103099.78
2023-02-27T17:52:13.957Z,103101.28
2023-02-27T17:55:19.076Z,103103.53
2023-02-27T17:58:22.735Z,103116.22
2023-02-27T18:01:27.101Z,103103.69
2023-02-27T18:04:30.842Z,103105.34
2023-02-27T18:07:34.738Z,103099.63
2023-02-27T18:10:39.899Z,103105.25
2023-02-27T18:13:44.307Z,103100.78
2023-02-27T18:16:48.065Z,103102.00
2023-02-27T18:19:51.777Z,103107.72
2023-02-27T18:22:55.330Z,103102.06
2023-02-27T18:26:01.509Z,103101.56
2023-02-27T18:29:08.706Z,103104.59
2023-02-27T18:32:12.839Z,103123.44
2023-02-27T18:35:17.023Z,103111.97
2023-02-27T18:38:20.721Z,103124.50
2023-02-27T18:41:25.822Z,103119.09
2023-02-27T18:44:29.422Z,103117.97
2023-02-27T18:47:33.029Z,103131.44
2023-02-27T18:50:36.801Z,103126.16
2023-02-27T18:53:43.679Z,103125.06
2023-02-27T18:56:51.596Z,103131.84
2023-02-27T18:59:55.339Z,103127.31
2023-02-27T19:02:59.072Z,103128.97
2023-02-27T19:06:02.914Z,103134.91
2023-02-27T19:09:07.151Z,103125.44
2023-02-27T19:12:12.202Z,103124.44
2023-02-27T19:15:23.609Z,103138.31
2023-02-27T19:18:27.318Z,103140.25
2023-02-27T19:21:31.000Z,103133.53
2023-02-27T19:24:34.715Z,103140.31
2023-02-27T19:27:40.591Z,103136.88
2023-02-27T19:30:44.346Z,103137.00
2023-02-27T19:33:48.047Z,103137.25
2023-02-27T19:36:51.649Z,103146.22
2023-02-27T19:39:55.277Z,103151.50
2023-02-27T19:43:00.331Z,103149.31
2023-02-27T19:46:06.800Z,103147.09
2023-02-27T19:49:12.025Z,103148.16
2023-02-27T19:52:15.701Z,103155.50
2023-02-27T19:55:19.663Z,103149.50
2023-02-27T19:58:24.581Z,103148.72
2023-02-27T20:01:32.590Z,103150.63
2023-02-27T20:04:36.220Z,103145.34
2023-02-27T20:07:40.489Z,103151.59
2023-02-27T20:10:44.547Z,103156.00
2023-02-27T20:13:50.331Z,103148.28
2023-02-27T20:16:54.297Z,103150.16
2023-02-27T20:19:57.999Z,103158.00
2023-02-27T20:23:01.640Z,103157.94
2023-02-27T20:26:16.883Z,103159.00
2023-02-27T20:29:24.990Z,103153.88
2023-02-27T20:32:28.930Z,103158.22
2023-02-27T20:35:32.638Z,103155.81
2023-02-27T20:38:39.088Z,103159.31
2023-02-27T20:41:42.803Z,103160.22
2023-02-27T20:44:50.447Z,103163.56
2023-02-27T20:47:54.048Z,103161.97
2023-02-27T20:50:57.645Z,103162.00
2023-02-27T20:54:01.892Z,103164.50
2023-02-27T20:57:05.739Z,103159.25
2023-02-27T21:00:13.023Z,103152.44
2023-02-27T21:03:16.625Z,103161.00
2023-02-27T21:06:20.723Z,103155.84
2023-02-27T21:09:24.421Z,103162.09
2023-02-27T21:12:28.144Z,103169.03
2023-02-27T21:15:36.259Z,103168.25
2023-02-27T21:18:40.205Z,103166.47
2023-02-27T21:21:43.915Z,103163.78
2023-02-27T21:24:53.731Z,103158.66
2023-02-27T21:28:02.194Z,103160.38
2023-02-27T21:31:08.903Z,103159.50
2023-02-27T21:34:17.371Z,103167.28
2023-02-27T21:37:20.975Z,103165.50
2023-02-27T21:40:24.804Z,103168.03
2023-02-27T21:43:28.433Z,103171.47
2023-02-27T21:46:34.732Z,103174.88
2023-02-27T21:49:39.433Z,103173.94
2023-02-27T21:52:43.352Z,103169.56
2023-02-27T21:55:47.074Z,103164.34
2023-02-27T21:58:51.514Z,103172.97
2023-02-27T22:01:56.629Z,103164.28
2023-02-27T22:05:00.517Z,103168.56
2023-02-27T22:08:04.208Z,103167.66
2023-02-27T22:11:09.109Z,103172.56
2023-02-27T22:14:13.936Z,103173.84
2023-02-27T22:17:18.921Z,103177.16
2023-02-27T22:20:22.619Z,103174.31
2023-02-27T22:23:27.105Z,103177.03
2023-02-27T22:26:30.941Z,103165.97
2023-02-27T22:29:34.642Z,103166.91
2023-02-27T22:32:42.138Z,103171.34
2023-02-27T22:35:45.862Z,103167.94
2023-02-27T22:38:50.647Z,103168.91
2023-02-27T22:41:56.531Z,103167.25
2023-02-27T22:45:00.517Z,103162.06
2023-02-27T22:48:06.102Z,103182.66
2023-02-27T22:51:12.777Z,103181.91
2023-02-27T22:54:18.518Z,103170.69
2023-02-27T22:57:22.125Z,103169.00
2023-02-27T23:00:26.030Z,103177.56
2023-02-27T23:03:31.588Z,103174.84
2023-02-27T23:06:39.966Z,103167.13
2023-02-27T23:09:43.881Z,103167.84
2023-02-27T23:12:47.607Z,103167.78
2023-02-27T23:15:51.246Z,103169.56
2023-02-27T23:18:59.461Z,103164.53
2023-02-27T23:22:03.039Z,103164.97
2023-02-27T23:25:09.243Z,103167.31
2023-02-27T23:28:13.225Z,103169.16
2023-02-27T23:31:16.939Z,103169.19
2023-02-27T23:34:21.902Z,103166.63
2023-02-27T23:37:25.561Z,103166.56
2023-02-27T23:40:29.872Z,103163.16
2023-02-27T23:43:33.475Z,103167.38
2023-02-27T23:46:37.326Z,103176.03
2023-02-27T23:49:42.350Z,103172.38
2023-02-27T23:52:45.915Z,103175.63
2023-02-27T23:55:49.656Z,103181.13
2023-02-27T23:58:57.302Z,103178.84
